createdAt,value
2018-07-21T00:00:20.020Z,20.53
2018-07-21T00:02:48.340Z,20.50
2018-07-21T00:05:16.680Z,20.49
2018-07-21T00:07:45.014Z,20.46
2018-07-21T00:10:13.330Z,20.41
2018-07-21T00:12:41.634Z,20.43
2018-07-21T00:15:09.997Z,20.38
2018-07-21T00:17:38.343Z,20.37
2018-07-21T00:20:06.940Z,20.36
2018-07-21T00:22:35.268Z,20.39
2018-07-21T00:25:03.768Z,20.38
2018-07-21T00:27:32.094Z,20.31
2018-07-21T00:30:00.414Z,20.21
2018-07-21T00:32:28.753Z,20.18
2018-07-21T00:34:57.096Z,20.13
2018-07-21T00:37:25.445Z,20.15
2018-07-21T00:39:53.776Z,20.15
2018-07-21T00:42:22.118Z,20.07
2018-07-21T00:44:50.440Z,20.01
2018-07-21T00:47:18.757Z,20.01
2018-07-21T00:49:47.087Z,19.99
2018-07-21T00:52:15.431Z,20.03
2018-07-21T00:54:43.793Z,19.94
2018-07-21T00:57:12.157Z,19.95
2018-07-21T00:59:40.480Z,19.88
2018-07-21T01:02:08.832Z,19.89
2018-07-21T01:04:37.159Z,19.83
2018-07-21T01:07:05.597Z,19.79
2018-07-21T01:09:33.925Z,19.76
2018-07-21T01:12:02.287Z,19.74
2018-07-21T01:14:30.666Z,19.77
2018-07-21T01:16:59.016Z,19.74
2018-07-21T01:19:27.347Z,19.70
2018-07-21T01:21:55.730Z,19.64
2018-07-21T01:24:24.072Z,19.64
2018-07-21T01:26:52.405Z,19.65
2018-07-21T01:29:20.730Z,19.63
2018-07-21T01:31:49.098Z,19.59
2018-07-21T01:34:17.403Z,19.59
2018-07-21T01:36:45.711Z,19.59
2018-07-21T01:39:14.064Z,19.59
2018-07-21T01:41:42.377Z,19.54
2018-07-21T01:44:10.729Z,19.45
2018-07-21T01:46:39.068Z,19.45
2018-07-21T01:49:07.424Z,19.53
2018-07-21T01:51:35.859Z,19.57
2018-07-21T01:54:04.190Z,19.49
2018-07-21T01:56:32.599Z,19.44
2018-07-21T01:59:00.889Z,19.43
2018-07-21T02:01:29.206Z,19.44
2018-07-21T02:03:57.517Z,19.38
2018-07-21T02:06:25.866Z,19.36
2018-07-21T02:08:54.205Z,19.30
2018-07-21T02:11:22.521Z,19.27
2018-07-21T02:13:50.850Z,19.25
2018-07-21T02:16:19.178Z,19.23
2018-07-21T02:18:47.516Z,19.17
2018-07-21T02:21:15.893Z,19.13
2018-07-21T02:23:44.276Z,19.13
2018-07-21T02:26:12.628Z,19.10
2018-07-21T02:28:40.962Z,19.07
2018-07-21T02:31:09.285Z,18.99
2018-07-21T02:33:37.623Z,18.99
2018-07-21T02:36:05.956Z,18.95
2018-07-21T02:38:34.264Z,18.93
2018-07-21T02:41:02.693Z,18.85
2018-07-21T02:43:31.249Z,18.85
2018-07-21T02:45:59.566Z,18.84
2018-07-21T02:48:27.890Z,18.80
2018-07-21T02:50:56.208Z,18.80
2018-07-21T02:53:24.521Z,18.74
2018-07-21T02:55:52.867Z,18.67
2018-07-21T02:58:21.203Z,18.69
2018-07-21T03:00:49.553Z,18.71
2018-07-21T03:03:17.873Z,18.63
2018-07-21T03:05:46.208Z,18.71
2018-07-21T03:08:14.520Z,18.63
2018-07-21T03:10:42.864Z,18.55
2018-07-21T03:13:11.213Z,18.56
2018-07-21T03:15:39.533Z,18.58
2018-07-21T03:18:07.870Z,18.54
2018-07-21T03:20:36.163Z,18.53
2018-07-21T03:23:04.784Z,18.56
2018-07-21T03:25:34.338Z,18.54
2018-07-21T03:28:02.679Z,18.55
2018-07-21T03:30:30.996Z,18.54
2018-07-21T03:32:59.336Z,18.56
2018-07-21T03:35:27.681Z,18.52
2018-07-21T03:37:56.011Z,18.53
2018-07-21T03:40:24.361Z,18.53
2018-07-21T03:42:52.681Z,18.54
2018-07-21T03:45:21.029Z,18.54
2018-07-21T03:47:49.369Z,18.50
2018-07-21T03:50:17.684Z,18.60
2018-07-21T03:52:45.993Z,18.56
2018-07-21T03:55:14.305Z,18.50
2018-07-21T03:57:42.645Z,18.54
2018-07-21T04:00:10.997Z,18.53
2018-07-21T04:02:39.326Z,18.54
2018-07-21T04:05:07.662Z,18.56
2018-07-21T04:07:35.994Z,18.63
2018-07-21T04:10:05.334Z,18.61
2018-07-21T04:12:33.673Z,18.66
2018-07-21T04:15:02.006Z,18.67
2018-07-21T04:17:30.323Z,18.66
2018-07-21T04:19:58.677Z,18.66
2018-07-21T04:22:27.488Z,18.70
2018-07-21T04:24:56.311Z,18.76
2018-07-21T04:27:24.702Z,18.74
2018-07-21T04:29:53.555Z,18.78
2018-07-21T04:32:21.888Z,18.81
2018-07-21T04:34:50.209Z,18.89
2018-07-21T04:37:18.541Z,18.93
2018-07-21T04:39:46.854Z,18.96
2018-07-21T04:42:15.167Z,19.01
2018-07-21T04:44:43.527Z,19.05
2018-07-21T04:47:11.870Z,19.05
2018-07-21T04:49:40.316Z,19.11
2018-07-21T04:52:09.051Z,19.15
2018-07-21T04:54:37.372Z,19.22
2018-07-21T04:57:05.734Z,19.27
2018-07-21T04:59:34.178Z,19.32
2018-07-21T05:02:02.576Z,19.40
2018-07-21T05:04:30.900Z,19.39
2018-07-21T05:06:59.256Z,19.51
2018-07-21T05:09:27.590Z,19.53
2018-07-21T05:11:55.902Z,19.59
2018-07-21T05:14:24.240Z,19.64
2018-07-21T05:16:52.624Z,19.74
2018-07-21T05:19:20.936Z,19.82
2018-07-21T05:21:49.265Z,19.86
2018-07-21T05:24:17.612Z,19.93
2018-07-21T05:26:45.919Z,20.00
2018-07-21T05:29:14.250Z,20.10
2018-07-21T05:31:42.576Z,20.20
2018-07-21T05:34:10.912Z,20.28
2018-07-21T05:36:39.234Z,20.36
2018-07-21T05:39:08.924Z,20.48
2018-07-21T05:41:37.249Z,20.60
2018-07-21T05:44:05.580Z,20.69
2018-07-21T05:46:34.211Z,20.78
2018-07-21T05:49:02.529Z,20.85
2018-07-21T05:51:30.838Z,21.00
2018-07-21T05:53:59.174Z,21.17
2018-07-21T05:56:27.731Z,21.26
2018-07-21T05:58:56.059Z,21.44
2018-07-21T06:01:24.371Z,21.57
2018-07-21T06:03:52.680Z,21.71
2018-07-21T06:06:21.007Z,21.79
2018-07-21T06:08:49.343Z,21.96
2018-07-21T06:11:17.651Z,22.10
2018-07-21T06:13:45.995Z,22.19
2018-07-21T06:16:14.296Z,22.27
2018-07-21T06:20:07.050Z,22.58
2018-07-21T06:22:35.365Z,23.04
2018-07-21T06:25:03.983Z,23.33
2018-07-21T06:27:32.336Z,23.51
2018-07-21T06:30:00.952Z,23.93
2018-07-21T06:32:29.282Z,24.20
2018-07-21T06:34:57.615Z,24.25
2018-07-21T06:37:25.923Z,24.99
2018-07-21T06:39:54.234Z,25.48
2018-07-21T06:42:22.576Z,26.24
2018-07-21T06:44:50.964Z,26.79
2018-07-21T06:47:19.271Z,27.33
2018-07-21T06:49:47.616Z,28.21
2018-07-21T06:52:15.924Z,28.97
2018-07-21T06:54:44.231Z,29.02
2018-07-21T06:57:12.545Z,29.91
2018-07-21T06:59:40.844Z,29.96
2018-07-21T07:02:09.452Z,29.79
2018-07-21T07:04:37.841Z,30.55
2018-07-21T07:07:06.222Z,30.70
2018-07-21T07:09:34.525Z,31.34
2018-07-21T07:12:02.856Z,30.73
2018-07-21T07:14:31.187Z,30.21
2018-07-21T07:16:59.511Z,31.32
2018-07-21T07:19:27.819Z,32.02
2018-07-21T07:21:56.128Z,32.06
2018-07-21T07:24:24.467Z,32.50
2018-07-21T07:26:52.783Z,32.93
2018-07-21T07:29:21.096Z,33.28
2018-07-21T07:31:49.432Z,33.20
2018-07-21T07:34:17.753Z,34.04
2018-07-21T07:36:46.068Z,34.46
2018-07-21T07:39:14.511Z,34.62
2018-07-21T07:41:42.831Z,34.96
2018-07-21T07:44:11.166Z,35.31
2018-07-21T07:46:39.500Z,34.76
2018-07-21T07:49:07.891Z,35.49
2018-07-21T07:51:36.236Z,36.34
2018-07-21T07:54:04.536Z,35.77
2018-07-21T07:56:32.897Z,35.65
2018-07-21T07:59:01.234Z,36.06
2018-07-21T08:01:29.936Z,36.42
2018-07-21T08:03:58.272Z,36.52
2018-07-21T08:06:26.808Z,37.11
2018-07-21T08:08:55.127Z,37.11
2018-07-21T08:11:23.464Z,38.00
2018-07-21T08:13:51.786Z,37.28
2018-07-21T08:16:20.131Z,35.28
2018-07-21T08:18:48.474Z,36.90
2018-07-21T08:21:16.822Z,37.70
2018-07-21T08:23:45.147Z,38.00
2018-07-21T08:27:37.955Z,36.84
2018-07-21T08:30:07.805Z,34.76
2018-07-21T08:32:36.102Z,35.95
2018-07-21T08:35:04.871Z,36.75
2018-07-21T08:37:33.480Z,36.94
2018-07-21T08:40:01.787Z,35.90
2018-07-21T08:42:30.120Z,35.16
2018-07-21T08:44:58.465Z,35.39
2018-07-21T08:47:26.784Z,36.03
2018-07-21T08:49:56.217Z,37.30
2018-07-21T08:52:24.511Z,38.05
2018-07-21T08:54:52.834Z,37.66
2018-07-21T08:57:21.202Z,39.15
2018-07-21T08:59:49.534Z,37.30
2018-07-21T09:02:17.861Z,36.82
2018-07-21T09:04:46.167Z,38.31
2018-07-21T09:07:14.550Z,39.66
2018-07-21T09:09:42.898Z,39.59
2018-07-21T09:12:11.207Z,40.43
2018-07-21T09:14:39.526Z,39.45
2018-07-21T09:17:07.847Z,40.36
2018-07-21T09:19:36.171Z,40.36
2018-07-21T09:22:04.512Z,40.94
2018-07-21T09:24:32.845Z,41.26
2018-07-21T09:27:01.168Z,41.08
2018-07-21T09:29:29.513Z,41.86
2018-07-21T09:31:57.844Z,41.27
2018-07-21T09:34:26.172Z,41.42
2018-07-21T09:36:54.488Z,41.29
2018-07-21T09:39:22.827Z,41.85
2018-07-21T09:41:51.158Z,42.70
2018-07-21T09:44:19.493Z,41.70
2018-07-21T09:46:47.828Z,39.57
2018-07-21T09:49:16.222Z,42.52
2018-07-21T09:51:44.519Z,41.97
2018-07-21T09:54:12.831Z,42.69
2018-07-21T09:56:41.196Z,41.92
2018-07-21T09:59:09.536Z,40.89
2018-07-21T10:01:37.893Z,40.69
2018-07-21T10:04:06.244Z,41.18
2018-07-21T10:06:34.588Z,41.42
2018-07-21T10:09:02.933Z,41.76
2018-07-21T10:11:31.286Z,42.29
2018-07-21T10:13:59.631Z,41.97
2018-07-21T10:16:27.939Z,41.09
2018-07-21T10:18:56.260Z,40.77
2018-07-21T10:21:24.680Z,40.83
2018-07-21T10:23:53.039Z,41.23
2018-07-21T10:26:26.628Z,39.07
2018-07-21T10:29:00.148Z,40.07
2018-07-21T10:31:28.492Z,39.91
2018-07-21T10:33:56.828Z,40.65
2018-07-21T10:36:25.179Z,38.82
2018-07-21T10:38:53.488Z,38.45
2018-07-21T10:41:21.804Z,39.82
2018-07-21T10:43:50.136Z,40.07
2018-07-21T10:46:18.460Z,38.99
2018-07-21T10:48:46.792Z,37.79
2018-07-21T10:51:15.105Z,37.65
2018-07-21T10:53:43.417Z,36.04
2018-07-21T10:56:11.721Z,36.04
2018-07-21T10:58:40.049Z,35.40
2018-07-21T11:01:08.380Z,34.95
2018-07-21T11:03:36.683Z,33.57
2018-07-21T11:06:05.001Z,33.71
2018-07-21T11:08:33.334Z,33.07
2018-07-21T11:11:01.686Z,31.74
2018-07-21T11:13:30.123Z,31.86
2018-07-21T11:15:58.440Z,31.82
2018-07-21T11:18:26.779Z,31.59
2018-07-21T11:20:55.108Z,31.54
2018-07-21T11:23:23.436Z,31.14
2018-07-21T11:25:51.777Z,31.10
2018-07-21T11:28:20.112Z,30.97
2018-07-21T11:30:48.412Z,30.83
2018-07-21T11:33:16.732Z,30.46
2018-07-21T11:35:45.153Z,30.40
2018-07-21T11:38:13.372Z,30.66
2018-07-21T11:40:41.701Z,30.66
2018-07-21T11:43:10.061Z,30.26
2018-07-21T11:45:38.422Z,30.38
2018-07-21T11:48:06.952Z,30.38
2018-07-21T11:50:36.089Z,30.19
2018-07-21T11:53:04.416Z,30.04
2018-07-21T11:55:32.736Z,29.36
2018-07-21T11:59:25.481Z,28.66
2018-07-21T12:01:53.815Z,29.11
2018-07-21T12:04:22.428Z,29.22
2018-07-21T12:06:50.738Z,29.23
2018-07-21T12:09:19.068Z,29.12
2018-07-21T12:11:47.419Z,29.06
2018-07-21T12:14:15.743Z,28.90
2018-07-21T12:16:44.069Z,28.80
2018-07-21T12:19:12.410Z,28.71
2018-07-21T12:21:41.002Z,28.61
2018-07-21T12:24:09.380Z,28.76
2018-07-21T12:26:37.748Z,28.88
2018-07-21T12:29:06.407Z,28.80
2018-07-21T12:31:34.751Z,28.83
2018-07-21T12:34:03.097Z,28.96
2018-07-21T12:36:31.415Z,28.73
2018-07-21T12:38:59.747Z,28.86
2018-07-21T12:41:28.065Z,28.81
2018-07-21T12:43:56.475Z,28.88
2018-07-21T12:46:24.775Z,28.74
2018-07-21T12:48:53.102Z,28.68
2018-07-21T12:51:21.459Z,28.71
2018-07-21T12:53:49.790Z,28.52
2018-07-21T12:56:18.114Z,28.57
2018-07-21T12:58:46.451Z,28.57
2018-07-21T13:01:14.754Z,28.47
2018-07-21T13:05:12.291Z,28.41
2018-07-21T13:07:40.625Z,28.45
2018-07-21T13:10:08.954Z,28.35
2018-07-21T13:12:37.557Z,28.20
2018-07-21T13:15:06.543Z,28.14
2018-07-21T13:17:34.898Z,28.10
2018-07-21T13:20:03.254Z,28.14
2018-07-21T13:22:31.598Z,28.15
2018-07-21T13:24:59.961Z,28.21
2018-07-21T13:27:28.313Z,28.18
2018-07-21T13:29:56.632Z,28.22
2018-07-21T13:32:25.071Z,28.31
2018-07-21T13:34:53.383Z,28.25
2018-07-21T13:37:21.741Z,28.26
2018-07-21T13:39:50.081Z,28.26
2018-07-21T13:42:18.416Z,28.20
2018-07-21T13:44:46.714Z,28.10
2018-07-21T13:47:15.043Z,28.13
2018-07-21T13:49:43.347Z,28.19
2018-07-21T13:52:11.694Z,28.16
2018-07-21T13:54:40.027Z,28.12
2018-07-21T13:57:08.491Z,28.18
2018-07-21T13:59:36.830Z,28.20
2018-07-21T14:02:05.163Z,28.21
2018-07-21T14:04:33.525Z,28.18
2018-07-21T14:07:02.552Z,28.17
2018-07-21T14:09:30.918Z,28.25
2018-07-21T14:11:59.277Z,28.24
2018-07-21T14:14:27.599Z,28.27
2018-07-21T14:16:55.934Z,28.38
2018-07-21T14:19:24.276Z,28.31
2018-07-21T14:21:53.188Z,28.30
2018-07-21T14:24:21.620Z,28.15
2018-07-21T14:26:49.960Z,28.15
2018-07-21T14:29:18.308Z,28.10
2018-07-21T14:31:46.657Z,28.21
2018-07-21T14:34:14.993Z,28.21
2018-07-21T14:36:43.337Z,28.23
2018-07-21T14:39:12.352Z,28.25
2018-07-21T14:41:41.101Z,28.26
2018-07-21T14:44:10.152Z,28.17
2018-07-21T14:46:38.528Z,28.12
2018-07-21T14:49:07.091Z,28.08
2018-07-21T14:51:35.557Z,27.97
2018-07-21T14:54:03.899Z,27.96
2018-07-21T14:56:32.359Z,27.89
2018-07-21T14:59:00.696Z,27.89
2018-07-21T15:01:29.108Z,27.84
2018-07-21T15:03:57.384Z,27.77
2018-07-21T15:06:26.553Z,27.79
2018-07-21T15:08:54.901Z,27.83
2018-07-21T15:11:23.237Z,27.82
2018-07-21T15:13:51.677Z,27.81
2018-07-21T15:16:20.176Z,27.76
2018-07-21T15:18:48.520Z,27.75
2018-07-21T15:21:16.887Z,27.77
2018-07-21T15:23:45.208Z,27.74
2018-07-21T15:26:13.553Z,27.72
2018-07-21T15:28:41.933Z,27.70
2018-07-21T15:31:10.287Z,27.69
2018-07-21T15:33:38.643Z,27.68
2018-07-21T15:36:06.968Z,27.69
2018-07-21T15:38:35.304Z,27.67
2018-07-21T15:41:03.640Z,27.67
2018-07-21T15:43:31.972Z,27.68
2018-07-21T15:46:00.313Z,27.66
2018-07-21T15:48:28.644Z,27.65
2018-07-21T15:50:56.999Z,27.56
2018-07-21T15:53:25.347Z,27.58
2018-07-21T15:55:53.679Z,27.56
2018-07-21T15:58:22.047Z,27.54
2018-07-21T16:00:50.383Z,27.47
2018-07-21T16:03:18.729Z,27.50
2018-07-21T16:05:47.040Z,27.49
2018-07-21T16:08:15.355Z,27.47
2018-07-21T16:10:43.708Z,27.46
2018-07-21T16:13:12.043Z,27.44
2018-07-21T16:15:40.398Z,27.47
2018-07-21T16:18:08.769Z,27.46
2018-07-21T16:20:37.108Z,27.41
2018-07-21T16:23:05.487Z,27.39
2018-07-21T16:25:33.785Z,27.38
2018-07-21T16:28:02.148Z,27.36
2018-07-21T16:30:30.471Z,27.25
2018-07-21T16:32:58.809Z,27.26
2018-07-21T16:35:27.148Z,27.22
2018-07-21T16:37:55.454Z,27.22
2018-07-21T16:40:23.778Z,27.23
2018-07-21T16:42:52.195Z,27.21
2018-07-21T16:45:20.526Z,27.16
2018-07-21T16:47:48.866Z,27.18
2018-07-21T16:50:17.174Z,27.13
2018-07-21T16:52:45.477Z,27.01
2018-07-21T16:55:13.801Z,26.98
2018-07-21T16:57:42.139Z,26.99
2018-07-21T17:00:10.536Z,26.97
2018-07-21T17:02:38.868Z,26.97
2018-07-21T17:05:07.233Z,26.91
2018-07-21T17:07:35.623Z,26.87
2018-07-21T17:10:04.005Z,26.86
2018-07-21T17:12:32.352Z,26.84
2018-07-21T17:15:00.728Z,26.77
2018-07-21T17:17:29.113Z,26.71
2018-07-21T17:19:57.444Z,26.71
2018-07-21T17:22:25.761Z,26.64
2018-07-21T17:24:54.114Z,26.63
2018-07-21T17:27:22.445Z,26.61
2018-07-21T17:29:50.884Z,26.60
2018-07-21T17:32:19.216Z,26.50
2018-07-21T17:34:47.559Z,26.49
2018-07-21T17:37:15.901Z,26.43
2018-07-21T17:39:44.252Z,26.41
2018-07-21T17:42:12.594Z,26.39
2018-07-21T17:44:40.964Z,26.33
2018-07-21T17:47:09.284Z,26.30
2018-07-21T17:49:37.614Z,26.25
2018-07-21T17:52:05.961Z,26.25
2018-07-21T17:54:34.317Z,26.20
2018-07-21T17:57:02.650Z,26.15
2018-07-21T17:59:30.981Z,26.14
2018-07-21T18:01:59.319Z,26.10
2018-07-21T18:04:27.666Z,26.08
2018-07-21T18:06:55.998Z,26.05
2018-07-21T18:09:24.319Z,26.02
2018-07-21T18:11:52.655Z,26.00
2018-07-21T18:14:20.989Z,25.95
2018-07-21T18:16:49.308Z,25.93
2018-07-21T18:19:17.651Z,25.91
2018-07-21T18:21:46.081Z,25.87
2018-07-21T18:24:14.406Z,25.88
2018-07-21T18:26:42.733Z,25.82
2018-07-21T18:29:11.080Z,25.81
2018-07-21T18:31:39.427Z,25.76
2018-07-21T18:34:08.576Z,25.76
2018-07-21T18:36:36.886Z,25.74
2018-07-21T18:39:07.975Z,25.70
2018-07-21T18:41:36.291Z,25.67
2018-07-21T18:44:04.727Z,25.67
2018-07-21T18:46:33.053Z,25.64
2018-07-21T18:49:01.517Z,25.62
2018-07-21T18:51:29.855Z,25.57
2018-07-21T18:53:58.169Z,25.55
2018-07-21T18:56:26.526Z,25.53
2018-07-21T18:58:54.872Z,25.49
2018-07-21T19:01:23.217Z,25.43
2018-07-21T19:03:51.618Z,25.35
2018-07-21T19:06:19.955Z,25.34
2018-07-21T19:08:53.658Z,25.26
2018-07-21T19:11:21.992Z,25.29
2018-07-21T19:13:50.323Z,25.25
2018-07-21T19:16:24.058Z,25.20
2018-07-21T19:18:52.417Z,25.17
2018-07-21T19:21:22.219Z,25.10
2018-07-21T19:23:51.415Z,25.06
2018-07-21T19:26:24.893Z,25.05
2018-07-21T19:28:53.503Z,24.98
2018-07-21T19:31:22.189Z,24.93
2018-07-21T19:33:50.507Z,24.91
2018-07-21T19:36:18.952Z,24.87
2018-07-21T19:38:47.328Z,24.86
2018-07-21T19:41:20.989Z,24.83
2018-07-21T19:43:49.416Z,24.77
2018-07-21T19:46:17.766Z,24.73
2018-07-21T19:48:46.084Z,24.70
2018-07-21T19:51:14.424Z,24.63
2018-07-21T19:53:42.728Z,24.60
2018-07-21T19:56:11.060Z,24.51
2018-07-21T19:58:39.366Z,24.48
2018-07-21T20:01:07.717Z,24.43
2018-07-21T20:03:36.034Z,24.36
2018-07-21T20:06:04.417Z,24.40
2018-07-21T20:08:32.753Z,24.33
2018-07-21T20:11:01.080Z,24.32
2018-07-21T20:13:29.424Z,24.29
2018-07-21T20:15:57.750Z,24.27
2018-07-21T20:18:26.078Z,24.24
2018-07-21T21:42:52.248Z,23.35
2018-07-21T21:45:20.584Z,23.31
2018-07-21T21:47:48.920Z,23.31
2018-07-21T21:50:17.271Z,23.32
2018-07-21T21:52:45.612Z,23.30
2018-07-21T21:55:13.938Z,23.31
2018-07-21T21:57:42.272Z,23.26
2018-07-21T22:00:12.264Z,23.24
2018-07-21T22:02:41.268Z,23.23
2018-07-21T22:05:10.265Z,23.13
2018-07-21T22:07:39.064Z,23.13
2018-07-21T22:11:31.852Z,23.12
2018-07-21T22:14:00.233Z,23.04
2018-07-21T22:16:28.585Z,23.02
2018-07-21T22:18:56.958Z,22.98
2018-07-21T22:21:25.354Z,23.04
2018-07-21T22:23:53.653Z,22.96
2018-07-21T22:26:22.027Z,22.94
2018-07-21T22:28:50.393Z,22.94
2018-07-21T22:31:18.745Z,22.84
2018-07-21T22:33:47.125Z,22.89
2018-07-21T22:36:15.428Z,22.84
2018-07-21T22:38:43.781Z,22.78
2018-07-21T22:41:12.138Z,22.80
2018-07-21T22:43:40.434Z,22.77
2018-07-21T22:46:08.753Z,22.77
2018-07-21T22:48:37.093Z,22.78
2018-07-21T22:51:05.426Z,22.75
2018-07-21T22:53:33.753Z,22.78
2018-07-21T22:56:02.115Z,22.69
2018-07-21T22:58:30.431Z,22.72
2018-07-21T23:00:58.751Z,22.71
2018-07-21T23:03:27.065Z,22.63
2018-07-21T23:05:55.413Z,22.55
2018-07-21T23:08:23.757Z,22.55
2018-07-21T23:10:52.092Z,22.56
2018-07-21T23:13:20.415Z,22.54
2018-07-21T23:15:48.777Z,22.51
2018-07-21T23:18:17.120Z,22.49
2018-07-21T23:20:45.446Z,22.50
2018-07-21T23:23:13.780Z,22.47
2018-07-21T23:25:42.165Z,22.38
2018-07-21T23:28:10.481Z,22.38
2018-07-21T23:30:38.832Z,22.38
2018-07-21T23:33:07.167Z,22.45
2018-07-21T23:35:35.474Z,22.42
2018-07-21T23:38:03.823Z,22.38
2018-07-21T23:40:32.170Z,22.36
2018-07-21T23:43:00.503Z,22.39
2018-07-21T23:45:28.832Z,22.39
2018-07-21T23:47:57.175Z,22.32
2018-07-21T23:50:25.517Z,22.35
2018-07-21T23:52:53.860Z,22.29
2018-07-21T23:55:22.202Z,22.26
2018-07-21T23:57:50.604Z,22.24
